DAOO

Es Senia Airport

Oran, Algeria
METAR DAOO 201600Z 03014KT 9999 FEW016 30/18 Q1014
Observed Flight Rules
Aug-20 @ 16:00 UTC (22 minutes ago) Visual Flight Rules
Wind Visibility Clouds
30° at 14 knots 10,000+ meters
  • Few at 1,600' AGL
Temperatures Readings
Current 30°C / 86°F
Dewpoint 18°C / 64°F
Humidity 49%
Altimeter 29.94" Hg
Pressure 1014 hPa
Elevation 90
METAR DAOO 201600Z 03014KT 9999 FEW016 30/18 Q1014
Observed Flight Rules
Aug-20 @ 16:00 UTC
(22 minutes ago)
VFR
Wind Visibility
30° at 14 knots 10,000+ meters
Clouds
  • Few at 1,600' AGL
Temperature Dewpoint
30°C / 86°F 18°C / 64°F
Humidity Altimeter Pressure
49% 29.94" Hg 1014 hPa